aviador You're here:

KIPJ Decoded Metar

LINCOLNTON in NC, USA
Report Time2018-04-23 22:50:00
UTC Time2018-04-23 22:53:03
Flight Rules ifr IFR
Wind070° at 06 kt
W.Decomp.*RWY 05: 5.4 kt HW 2.6 kt RCW
W.Rank070° ranks 18
Current wind is above 070° avg. (5.0)
Visibility4828 m
Phenomena:Rain
Clouds:Overcast 006 Hf
Ceiling600 ft
Temp13°C (ISA -0)
Dew Point13°C (100% RH)
AAT11.8°C
QNH1020 hPa
Density Alt814 ft
Elevation876 ft
Report Wrong Elevation
Raw Report
METAR KIPJ 232250Z AUTO 07006KT 3SM RA OVC006 13/13 A3011 RMK AO2 P0009
T01330130=

Extra information for KIPJ:More info

Metar Taf Metar & Taf Last 4 Metars F.Rules Stats Wind Profile Meteogram Temp Stats Airport Information Weather charts Add Link Nearby VenuesMetar ALERT Operation Metar Decoded Social comments

AIRNAV info for KIPJ